Time;durP1;ratioP1;P1;durP2;ratioP2;P2;SDS_P1;SDS_P2;PMS_P1;PMS_P2;Temp;Humidity;BMP_temperature;BMP_pressure;BME280_temperature;BME280_humidity;BME280_pressure;Samples;Min_cycle;Max_cycle;Signal;HPM_P1;HPM_P2
2022/03/08 00:00:07;;;;;;;9.20;8.30;;;2.90;40.70;;;;;;6214503;28;20483;-58
2022/03/08 00:03:10;;;;;;;10.67;8.47;;;3.00;40.70;;;;;;6213127;28;20484;-60
2022/03/08 00:06:13;;;;;;;8.90;8.00;;;2.90;41.00;;;;;;6201071;28;20469;-61
2022/03/08 00:09:18;;;;;;;8.80;7.90;;;3.00;41.70;;;;;;6203970;28;20510;-60
2022/03/08 00:12:21;;;;;;;9.60;8.23;;;3.00;41.20;;;;;;6224697;28;20487;-60
2022/03/08 00:15:26;;;;;;;9.40;8.50;;;3.10;41.30;;;;;;6200990;28;20484;-59
2022/03/08 00:18:29;;;;;;;9.10;8.20;;;3.10;41.20;;;;;;6200721;28;20973;-59
2022/03/08 00:21:32;;;;;;;9.57;8.30;;;3.20;41.00;;;;;;6203223;28;20468;-59
2022/03/08 00:24:37;;;;;;;9.37;8.33;;;3.20;41.00;;;;;;6213625;28;20968;-60
2022/03/08 00:27:45;;;;;;;10.17;9.10;;;3.20;41.00;;;;;;6209161;28;20472;-60
2022/03/08 00:30:49;;;;;;;8.90;8.00;;;3.20;41.00;;;;;;6212027;28;20807;-60
2022/03/08 00:33:52;;;;;;;9.43;8.53;;;3.20;41.20;;;;;;6212765;28;20572;-59
2022/03/08 00:36:55;;;;;;;10.83;8.93;;;3.20;41.20;;;;;;6211262;28;20480;-59
2022/03/08 00:40:00;;;;;;;11.90;8.57;;;3.10;41.30;;;;;;6210852;28;20536;-59
2022/03/08 00:43:03;;;;;;;9.70;8.70;;;3.10;42.10;;;;;;6212683;28;20472;-59
2022/03/08 00:46:06;;;;;;;6.90;6.30;;;3.10;41.50;;;;;;6213549;28;20857;-61
2022/03/08 00:49:09;;;;;;;9.07;8.17;;;3.00;41.80;;;;;;6212043;28;20469;-60
2022/03/08 00:52:12;;;;;;;9.53;8.53;;;3.00;41.80;;;;;;6211347;28;20483;-60
2022/03/08 00:55:18;;;;;;;8.93;8.10;;;3.00;41.90;;;;;;6213077;28;20465;-61
2022/03/08 00:58:22;;;;;;;10.23;8.30;;;3.00;42.20;;;;;;6214104;28;20475;-60
2022/03/08 01:01:25;;;;;;;10.60;8.00;;;2.90;42.30;;;;;;6215252;28;20484;-61
2022/03/08 01:04:29;;;;;;;9.03;8.20;;;2.90;42.60;;;;;;6220390;28;20519;-60
2022/03/08 01:07:32;;;;;;;9.97;8.40;;;3.00;42.80;;;;;;6214444;28;20972;-60
2022/03/08 01:10:37;;;;;;;9.97;8.60;;;2.90;43.00;;;;;;6215523;28;20495;-60
2022/03/08 01:13:41;;;;;;;9.30;8.30;;;2.90;43.40;;;;;;6217040;28;20473;-60
2022/03/08 01:16:44;;;;;;;9.20;8.10;;;3.00;44.10;;;;;;6216598;28;20973;-60
2022/03/08 01:19:47;;;;;;;10.50;9.40;;;3.00;44.00;;;;;;6212372;28;20950;-61
2022/03/08 01:22:50;;;;;;;8.53;7.60;;;3.10;43.90;;;;;;6214835;28;20480;-62
2022/03/08 01:25:55;;;;;;;9.70;8.70;;;3.20;43.80;;;;;;6206330;28;20466;-62
2022/03/08 01:28:59;;;;;;;10.33;8.17;;;3.20;43.80;;;;;;6204946;28;20599;-62
2022/03/08 01:32:02;;;;;;;9.93;8.93;;;3.30;44.10;;;;;;6200327;28;20453;-62
2022/03/08 01:35:06;;;;;;;10.10;8.70;;;3.40;44.00;;;;;;6204354;28;20456;-62
2022/03/08 01:38:09;;;;;;;10.23;8.83;;;3.40;44.20;;;;;;6204926;28;20446;-62
2022/03/08 01:41:14;;;;;;;8.40;7.60;;;3.40;44.10;;;;;;6203942;28;20492;-62
2022/03/08 01:44:19;;;;;;;9.57;8.07;;;3.40;43.90;;;;;;6204178;28;20461;-62
2022/03/08 01:47:25;;;;;;;10.13;8.50;;;3.40;44.20;;;;;;6204258;28;20484;-61
2022/03/08 01:50:28;;;;;;;9.47;8.53;;;3.50;44.30;;;;;;6203964;28;21081;-62
2022/03/08 01:53:32;;;;;;;10.10;9.10;;;3.50;44.40;;;;;;6203981;28;20500;-62
2022/03/08 01:56:38;;;;;;;9.90;9.00;;;3.40;44.50;;;;;;6203997;28;20481;-60
2022/03/08 01:59:41;;;;;;;10.13;8.50;;;3.50;44.40;;;;;;6203503;28;20850;-60
2022/03/08 02:02:45;;;;;;;9.27;8.20;;;3.40;44.60;;;;;;6203238;28;20477;-60
2022/03/08 02:05:48;;;;;;;8.43;7.70;;;3.40;44.80;;;;;;6203625;28;20476;-60
2022/03/08 02:08:51;;;;;;;8.47;7.70;;;3.40;44.60;;;;;;6202535;28;20477;-61
2022/03/08 02:11:56;;;;;;;9.90;8.90;;;3.40;44.60;;;;;;6208686;28;20489;-62
2022/03/08 02:14:59;;;;;;;9.43;8.53;;;3.50;44.40;;;;;;6203185;28;20485;-61
2022/03/08 02:18:02;;;;;;;9.10;8.20;;;3.60;44.20;;;;;;6202858;28;20870;-59
2022/03/08 02:21:08;;;;;;;9.27;8.40;;;3.60;44.10;;;;;;6203124;28;20583;-59
2022/03/08 02:24:11;;;;;;;10.33;9.30;;;3.60;44.00;;;;;;6203091;28;20481;-60
2022/03/08 02:27:14;;;;;;;9.47;8.57;;;3.60;43.90;;;;;;6203160;28;20942;-60
2022/03/08 02:30:19;;;;;;;9.83;8.00;;;3.70;43.80;;;;;;6202927;28;20473;-59
2022/03/08 02:33:22;;;;;;;8.00;7.20;;;3.70;43.60;;;;;;6202894;28;20469;-60
2022/03/08 02:36:27;;;;;;;9.53;8.47;;;3.70;43.60;;;;;;6193527;28;20764;-63
2022/03/08 02:39:30;;;;;;;10.50;8.90;;;3.70;43.70;;;;;;6202515;28;20489;-62
2022/03/08 02:42:33;;;;;;;10.30;9.40;;;3.60;43.70;;;;;;6202632;28;20488;-62
2022/03/08 02:45:37;;;;;;;9.30;8.40;;;3.60;43.80;;;;;;6202427;28;20516;-62
2022/03/08 02:48:40;;;;;;;9.97;7.87;;;3.60;43.90;;;;;;6202186;28;20543;-61
2022/03/08 02:51:44;;;;;;;10.80;7.87;;;3.60;43.90;;;;;;6202796;28;20473;-61
2022/03/08 02:54:47;;;;;;;7.77;7.07;;;3.60;44.10;;;;;;6202429;28;20858;-60
2022/03/08 02:57:52;;;;;;;10.07;8.17;;;3.50;44.10;;;;;;6202484;28;20795;-60
2022/03/08 03:00:55;;;;;;;9.27;8.30;;;3.50;44.40;;;;;;6202253;28;20477;-60
2022/03/08 03:03:58;;;;;;;10.03;9.03;;;3.40;44.40;;;;;;6202173;28;20828;-61
2022/03/08 03:07:03;;;;;;;9.57;8.13;;;3.50;44.70;;;;;;6201792;28;20925;-60
2022/03/08 03:10:07;;;;;;;8.23;7.53;;;3.40;44.70;;;;;;6202426;28;20485;-60
2022/03/08 03:13:10;;;;;;;12.40;9.27;;;3.30;45.00;;;;;;6204324;28;20481;-59
2022/03/08 03:16:13;;;;;;;11.17;8.93;;;3.30;45.20;;;;;;6202676;28;20477;-59
2022/03/08 03:19:16;;;;;;;9.60;8.57;;;3.20;45.20;;;;;;6202053;28;20469;-59
2022/03/08 03:22:21;;;;;;;10.33;9.23;;;3.20;45.50;;;;;;6202041;28;20485;-60
2022/03/08 03:25:24;;;;;;;10.33;8.17;;;3.10;45.70;;;;;;6202211;28;20481;-59
2022/03/08 03:28:27;;;;;;;9.63;8.63;;;3.20;45.90;;;;;;6202055;28;20491;-60
2022/03/08 03:31:30;;;;;;;9.83;8.90;;;3.00;45.80;;;;;;6201453;28;20481;-60
2022/03/08 03:34:33;;;;;;;9.07;8.17;;;3.00;46.10;;;;;;6201461;28;20989;-61
2022/03/08 03:37:38;;;;;;;10.33;9.20;;;3.00;46.10;;;;;;6201659;28;20809;-60
2022/03/08 03:40:41;;;;;;;9.83;8.83;;;3.00;46.20;;;;;;6196807;28;20482;-61
2022/03/08 03:43:44;;;;;;;10.60;9.00;;;2.90;46.20;;;;;;6201257;28;20477;-60
2022/03/08 03:46:47;;;;;;;10.00;9.00;;;2.90;46.50;;;;;;6201436;28;20787;-60
2022/03/08 03:49:50;;;;;;;9.60;8.60;;;2.80;46.60;;;;;;6207845;23;20489;-59
2022/03/08 03:52:55;;;;;;;9.67;8.73;;;2.80;46.90;;;;;;6200847;28;20487;-59
2022/03/08 03:55:58;;;;;;;9.63;8.73;;;2.70;47.00;;;;;;6201115;28;20523;-61
2022/03/08 03:59:02;;;;;;;10.57;8.40;;;2.70;47.20;;;;;;6201454;28;20462;-61
2022/03/08 04:02:05;;;;;;;10.97;8.97;;;2.60;47.10;;;;;;6201308;28;20461;-62
2022/03/08 04:05:10;;;;;;;9.93;8.80;;;2.60;47.30;;;;;;6201046;28;20445;-61
2022/03/08 04:08:15;;;;;;;9.43;8.37;;;2.70;47.40;;;;;;6201059;28;20445;-61
2022/03/08 04:11:19;;;;;;;10.70;9.17;;;2.70;47.20;;;;;;6201365;28;20460;-61
2022/03/08 04:14:22;;;;;;;10.17;8.60;;;2.60;47.10;;;;;;6200958;28;20860;-60
2022/03/08 04:17:25;;;;;;;10.67;9.40;;;2.60;47.40;;;;;;6201340;28;20464;-61
2022/03/08 04:20:28;;;;;;;8.90;8.00;;;2.60;47.30;;;;;;6201305;28;20480;-60
2022/03/08 04:23:32;;;;;;;11.00;8.90;;;2.60;47.40;;;;;;6201135;28;20473;-60
2022/03/08 04:26:36;;;;;;;9.13;8.23;;;2.60;47.50;;;;;;6200891;28;20469;-60
2022/03/08 04:29:39;;;;;;;9.60;8.70;;;2.60;47.30;;;;;;6200442;28;20490;-60
2022/03/08 04:32:42;;;;;;;9.50;8.40;;;2.60;47.50;;;;;;6192788;28;20473;-60
2022/03/08 04:35:45;;;;;;;10.60;8.67;;;2.50;47.50;;;;;;6194119;28;20473;-61
2022/03/08 04:38:50;;;;;;;11.03;8.17;;;2.50;47.50;;;;;;6186469;28;20474;-61
2022/03/08 04:41:53;;;;;;;10.47;9.37;;;2.50;47.80;;;;;;6185883;28;20485;-60
2022/03/08 04:44:56;;;;;;;10.40;8.67;;;2.50;47.70;;;;;;6170160;28;20490;-61
2022/03/08 04:47:59;;;;;;;10.23;9.23;;;2.40;47.70;;;;;;6181120;28;20481;-60
2022/03/08 04:51:02;;;;;;;9.50;8.57;;;2.40;48.00;;;;;;6158940;28;20479;-60
2022/03/08 04:54:07;;;;;;;10.93;8.27;;;2.30;48.10;;;;;;6156962;28;20470;-60
2022/03/08 04:57:10;;;;;;;9.83;8.93;;;2.30;48.30;;;;;;6157077;28;20493;-60
2022/03/08 05:00:14;;;;;;;11.13;9.93;;;2.30;48.30;;;;;;6156786;28;20479;-60
2022/03/08 05:03:17;;;;;;;9.73;8.83;;;2.20;48.40;;;;;;6157025;28;20475;-61
2022/03/08 05:06:20;;;;;;;12.13;9.00;;;2.10;48.60;;;;;;6156709;28;20474;-61
2022/03/08 05:09:25;;;;;;;11.87;8.50;;;2.10;48.80;;;;;;6156771;28;20490;-62
2022/03/08 05:12:28;;;;;;;9.93;9.03;;;2.10;49.10;;;;;;6156912;28;20867;-62
2022/03/08 05:15:31;;;;;;;11.20;9.27;;;2.00;49.20;;;;;;6156454;28;20483;-62
2022/03/08 05:18:34;;;;;;;12.03;9.13;;;2.00;49.30;;;;;;6156166;28;20505;-62
2022/03/08 05:21:37;;;;;;;11.27;9.53;;;1.90;49.20;;;;;;6156266;28;20815;-62
2022/03/08 05:24:42;;;;;;;11.80;9.43;;;1.90;49.30;;;;;;6156270;28;20927;-62
2022/03/08 05:27:45;;;;;;;10.67;9.60;;;1.80;49.80;;;;;;6156094;28;20483;-60
2022/03/08 05:30:48;;;;;;;10.03;9.10;;;1.80;49.90;;;;;;6156049;28;20498;-60
2022/03/08 05:33:51;;;;;;;9.90;8.90;;;1.70;50.20;;;;;;6156159;28;20487;-60
2022/03/08 05:36:55;;;;;;;11.97;8.43;;;1.70;50.20;;;;;;6156021;28;20852;-60
2022/03/08 05:40:00;;;;;;;9.47;8.57;;;1.60;50.40;;;;;;6156093;28;20795;-61
2022/03/08 05:43:03;;;;;;;11.07;8.60;;;1.60;50.60;;;;;;6155304;28;20479;-60
2022/03/08 05:46:06;;;;;;;10.63;8.67;;;1.60;50.60;;;;;;6155693;28;20491;-61
2022/03/08 05:49:09;;;;;;;11.30;8.70;;;1.50;50.70;;;;;;6146178;28;20487;-60
2022/03/08 05:52:13;;;;;;;11.07;9.20;;;1.50;50.80;;;;;;6155840;28;20482;-59
2022/03/08 05:55:17;;;;;;;9.90;8.90;;;1.50;51.10;;;;;;6155560;28;20479;-60
2022/03/08 05:58:20;;;;;;;12.70;9.17;;;1.50;51.00;;;;;;6155898;28;20474;-61
2022/03/08 06:01:23;;;;;;;8.47;7.67;;;1.50;50.90;;;;;;6155728;28;20859;-59
2022/03/08 06:04:26;;;;;;;10.43;8.70;;;1.50;50.90;;;;;;6155358;28;20642;-59
2022/03/08 06:07:29;;;;;;;13.43;10.53;;;1.60;50.80;;;;;;6155677;29;20474;-59
2022/03/08 06:10:34;;;;;;;12.47;10.03;;;1.60;50.70;;;;;;6155353;28;20553;-60
2022/03/08 06:13:37;;;;;;;10.90;9.17;;;1.70;50.70;;;;;;6155256;28;20494;-59
2022/03/08 06:16:41;;;;;;;10.70;9.40;;;1.70;50.70;;;;;;6155676;28;20474;-62
2022/03/08 06:19:44;;;;;;;15.20;9.43;;;1.80;50.60;;;;;;6155518;28;20931;-61
2022/03/08 06:22:47;;;;;;;13.67;10.30;;;1.90;50.70;;;;;;6155116;28;20475;-61
2022/03/08 06:25:51;;;;;;;10.10;8.27;;;1.90;50.40;;;;;;6155098;28;20479;-62
2022/03/08 06:28:55;;;;;;;11.27;10.03;;;2.00;50.20;;;;;;6154778;28;20837;-62
2022/03/08 06:31:58;;;;;;;11.97;9.50;;;2.10;49.80;;;;;;6154570;28;20494;-61
2022/03/08 06:35:01;;;;;;;15.67;9.23;;;2.10;49.40;;;;;;6155764;28;20478;-61
2022/03/08 06:38:04;;;;;;;13.30;8.87;;;2.20;49.40;;;;;;6154748;28;20450;-62
2022/03/08 06:41:09;;;;;;;9.50;8.40;;;2.30;49.00;;;;;;6154568;28;20478;-62
2022/03/08 06:44:12;;;;;;;13.03;9.57;;;2.40;48.70;;;;;;6154778;28;20447;-60
2022/03/08 06:47:15;;;;;;;14.57;10.07;;;2.50;48.40;;;;;;6154340;28;20467;-62
2022/03/08 06:50:19;;;;;;;12.40;7.70;;;2.50;48.20;;;;;;6149854;28;20598;-61
2022/03/08 06:53:22;;;;;;;12.77;8.93;;;2.60;48.20;;;;;;6154263;28;20542;-62
2022/03/08 06:56:26;;;;;;;13.70;9.50;;;2.70;48.00;;;;;;6153781;28;20475;-62
2022/03/08 06:59:30;;;;;;;10.63;7.70;;;2.90;47.80;;;;;;6154215;28;20483;-62
2022/03/08 07:02:33;;;;;;;12.33;8.80;;;3.00;47.50;;;;;;6153739;28;20479;-62
2022/03/08 07:05:37;;;;;;;8.77;7.80;;;3.00;47.20;;;;;;6152671;28;20490;-62
2022/03/08 07:08:40;;;;;;;9.40;8.40;;;3.10;46.80;;;;;;6153214;28;20510;-62
2022/03/08 07:11:45;;;;;;;11.70;8.47;;;3.20;46.60;;;;;;6153222;28;20479;-62
2022/03/08 07:14:48;;;;;;;11.13;8.57;;;3.30;46.20;;;;;;6152933;28;20816;-62
2022/03/08 07:17:51;;;;;;;10.33;9.30;;;3.40;46.00;;;;;;6152618;28;20475;-62
2022/03/08 07:20:54;;;;;;;8.73;7.63;;;3.50;45.60;;;;;;6152252;28;20478;-62
2022/03/08 07:23:58;;;;;;;11.80;10.67;;;3.60;45.40;;;;;;6151976;28;20963;-63
2022/03/08 07:27:04;;;;;;;12.13;8.40;;;3.80;44.90;;;;;;6152551;28;20929;-62
2022/03/08 07:30:09;;;;;;;11.93;8.10;;;3.90;44.70;;;;;;6152426;28;20489;-62
2022/03/08 07:33:13;;;;;;;9.03;7.67;;;4.10;44.20;;;;;;6152719;28;20466;-62
2022/03/08 07:36:16;;;;;;;8.53;7.37;;;4.30;43.80;;;;;;6153176;28;20947;-61
2022/03/08 07:39:19;;;;;;;10.37;7.80;;;4.60;43.20;;;;;;6153482;28;20487;-62
2022/03/08 07:42:25;;;;;;;10.70;7.30;;;4.80;42.20;;;;;;6153335;28;20475;-61
2022/03/08 07:45:28;;;;;;;8.03;7.23;;;5.10;41.60;;;;;;6153494;28;20486;-61
2022/03/08 07:48:32;;;;;;;7.90;7.00;;;5.40;41.00;;;;;;6152684;28;21027;-62
2022/03/08 07:51:35;;;;;;;7.13;6.40;;;5.80;40.40;;;;;;6153473;28;20501;-62
2022/03/08 07:54:38;;;;;;;8.80;7.43;;;7.40;39.10;;;;;;6153006;28;20861;-62
2022/03/08 07:57:43;;;;;;;7.47;6.77;;;10.60;34.50;;;;;;6153219;28;20495;-62
2022/03/08 08:01:03;;;;;;;6.80;6.20;;;13.50;31.20;;;;;;6153176;28;20486;-62
2022/03/08 08:04:07;;;;;;;9.17;7.50;;;16.00;28.40;;;;;;6153303;28;20475;-62
2022/03/08 08:07:10;;;;;;;6.60;6.00;;;18.30;25.40;;;;;;6155236;28;20471;-61
2022/03/08 08:10:13;;;;;;;7.87;6.53;;;17.90;24.50;;;;;;6162837;28;20493;-61
2022/03/08 08:13:17;;;;;;;7.80;7.03;;;16.20;24.70;;;;;;6160697;28;20475;-62
2022/03/08 08:16:21;;;;;;;7.27;6.53;;;14.80;25.50;;;;;;6158586;28;20478;-62
2022/03/08 08:19:24;;;;;;;8.70;7.67;;;13.90;25.80;;;;;;6179515;28;20576;-63
2022/03/08 08:22:27;;;;;;;6.87;6.20;;;13.00;27.10;;;;;;6157832;28;20498;-61
2022/03/08 08:25:30;;;;;;;8.90;5.97;;;12.40;26.80;;;;;;6166601;28;20480;-62
2022/03/08 08:28:35;;;;;;;8.80;7.93;;;11.80;27.00;;;;;;6168186;28;20528;-61
2022/03/08 08:31:38;;;;;;;10.30;7.00;;;11.30;27.60;;;;;;6168064;28;20485;-59
2022/03/08 08:34:42;;;;;;;8.50;6.97;;;10.90;28.30;;;;;;6167102;28;20807;-60
2022/03/08 08:37:45;;;;;;;6.20;5.60;;;10.60;28.60;;;;;;6169820;28;20483;-59
2022/03/08 08:40:48;;;;;;;6.13;5.53;;;10.10;28.80;;;;;;6167468;28;20801;-58
2022/03/08 08:43:53;;;;;;;8.53;6.70;;;9.70;29.80;;;;;;6167839;28;20831;-59
2022/03/08 08:46:56;;;;;;;7.07;6.07;;;9.40;30.10;;;;;;6171057;28;20487;-58
2022/03/08 08:50:00;;;;;;;16.80;15.40;;;9.30;30.60;;;;;;6168484;28;20552;-59
2022/03/08 08:53:04;;;;;;;5.60;5.00;;;9.50;30.60;;;;;;6169658;28;20489;-62
2022/03/08 08:56:07;;;;;;;6.10;5.30;;;10.00;29.30;;;;;;6166488;28;20463;-61
2022/03/08 08:59:12;;;;;;;7.43;5.00;;;10.40;28.70;;;;;;6162314;28;20456;-61
2022/03/08 09:02:15;;;;;;;6.67;4.73;;;11.50;28.60;;;;;;6156278;28;20462;-61
2022/03/08 09:05:19;;;;;;;7.03;5.40;;;15.80;25.80;;;;;;6156959;28;20493;-61
2022/03/08 09:08:24;;;;;;;4.40;4.00;;;17.00;22.80;;;;;;6157356;28;20471;-60
2022/03/08 09:11:28;;;;;;;4.23;3.83;;;16.10;22.30;;;;;;6158350;28;20598;-65
2022/03/08 09:14:32;;;;;;;4.03;3.73;;;15.10;23.00;;;;;;6158332;28;20486;-64
2022/03/08 09:17:37;;;;;;;3.80;3.23;;;14.20;23.00;;;;;;6158698;28;20486;-64
2022/03/08 09:20:41;;;;;;;6.73;3.50;;;13.40;23.50;;;;;;6157190;28;20489;-63
2022/03/08 09:23:44;;;;;;;3.50;3.20;;;12.40;23.90;;;;;;6158135;28;20994;-63
2022/03/08 09:26:47;;;;;;;3.73;3.43;;;11.10;24.70;;;;;;6158022;28;20491;-62
2022/03/08 09:29:52;;;;;;;4.23;3.40;;;10.00;25.90;;;;;;6158141;29;20476;-61
2022/03/08 09:32:58;;;;;;;4.47;3.70;;;9.40;27.70;;;;;;6157803;29;20478;-61
2022/03/08 09:36:01;;;;;;;3.17;2.87;;;8.70;28.50;;;;;;6156553;29;21171;-63
2022/03/08 09:39:05;;;;;;;5.47;3.30;;;8.40;29.60;;;;;;6155950;29;20482;-62
2022/03/08 09:42:09;;;;;;;5.93;4.97;;;8.40;29.90;;;;;;6156307;29;20481;-61
2022/03/08 09:45:15;;;;;;;5.90;4.13;;;8.50;30.00;;;;;;6155359;29;20999;-66
2022/03/08 09:48:19;;;;;;;5.00;4.10;;;10.40;28.50;;;;;;6154932;28;20478;-61
2022/03/08 09:51:24;;;;;;;4.10;3.20;;;11.50;26.50;;;;;;6157877;29;20992;-65
2022/03/08 09:54:27;;;;;;;3.53;3.33;;;11.50;26.20;;;;;;6157196;29;20474;-61
2022/03/08 09:57:31;;;;;;;4.10;3.70;;;12.50;26.30;;;;;;6156575;28;20945;-63
2022/03/08 10:00:35;;;;;;;5.10;4.47;;;13.10;24.60;;;;;;6156204;29;20788;-65
2022/03/08 10:03:40;;;;;;;3.87;3.40;;;13.00;24.80;;;;;;6170199;28;20789;-62
2022/03/08 10:06:46;;;;;;;4.80;3.50;;;12.80;24.70;;;;;;6172838;28;20489;-64
2022/03/08 10:09:55;;;;;;;4.07;3.77;;;12.90;24.80;;;;;;6181986;28;20959;-62
2022/03/08 10:12:59;;;;;;;4.37;3.97;;;16.70;23.60;;;;;;6181591;28;20487;-63
2022/03/08 10:16:13;;;;;;;4.80;4.40;;;18.20;21.30;;;;;;6182038;28;20554;-62
2022/03/08 10:19:16;;;;;;;4.47;4.07;;;18.00;20.60;;;;;;6180917;28;20482;-64
2022/03/08 10:22:25;;;;;;;5.27;4.77;;;16.60;21.30;;;;;;6180627;28;20973;-63
2022/03/08 10:25:31;;;;;;;4.50;4.10;;;15.50;21.90;;;;;;6181155;28;20504;-65
2022/03/08 10:28:45;;;;;;;4.97;4.47;;;14.50;22.60;;;;;;6180652;28;20967;-62
2022/03/08 10:31:49;;;;;;;4.23;3.83;;;13.70;23.10;;;;;;6181107;28;20481;-62
2022/03/08 10:34:55;;;;;;;4.77;4.33;;;13.10;23.70;;;;;;6181689;28;20796;-61
2022/03/08 10:38:04;;;;;;;6.20;4.83;;;12.70;24.60;;;;;;6180540;28;20966;-61
2022/03/08 10:41:18;;;;;;;4.90;3.87;;;12.30;24.80;;;;;;6181568;28;20755;-62
2022/03/08 10:44:33;;;;;;;4.57;3.93;;;11.80;25.40;;;;;;6181194;28;20474;-62
2022/03/08 10:47:42;;;;;;;3.70;3.40;;;12.70;25.60;;;;;;6176678;28;20549;-60
2022/03/08 10:50:49;;;;;;;3.77;3.47;;;14.50;24.50;;;;;;6177567;28;20488;-60
2022/03/08 10:53:53;;;;;;;4.47;4.07;;;15.50;23.10;;;;;;6178218;28;20802;-59
2022/03/08 10:56:57;;;;;;;3.93;3.50;;;16.10;22.90;;;;;;6177732;28;21000;-60
2022/03/08 11:00:00;;;;;;;4.23;3.50;;;18.50;21.00;;;;;;6178242;28;20494;-60
2022/03/08 11:03:06;;;;;;;5.43;4.40;;;19.30;20.00;;;;;;6178773;28;20474;-60
2022/03/08 11:06:09;;;;;;;4.20;3.80;;;19.80;19.10;;;;;;6178259;28;20255;-59
2022/03/08 11:09:13;;;;;;;4.57;3.43;;;18.80;19.40;;;;;;6169824;28;20338;-59
2022/03/08 11:12:16;;;;;;;6.53;4.70;;;18.40;20.00;;;;;;6178510;28;20246;-59
2022/03/08 11:15:21;;;;;;;4.57;4.17;;;20.30;19.80;;;;;;6179337;28;20226;-59
2022/03/08 11:18:26;;;;;;;5.00;4.60;;;26.00;18.00;;;;;;6178621;28;20231;-59
2022/03/08 11:21:35;;;;;;;5.23;4.57;;;26.10;15.50;;;;;;6179113;28;20227;-59
2022/03/08 11:24:38;;;;;;;5.33;4.50;;;24.20;16.00;;;;;;6171763;28;20242;-60
2022/03/08 11:27:43;;;;;;;3.90;3.60;;;23.10;16.40;;;;;;6170428;28;20227;-59
2022/03/08 11:30:47;;;;;;;4.97;3.70;;;21.60;16.60;;;;;;6176801;28;20244;-59
2022/03/08 11:34:00;;;;;;;3.53;3.23;;;19.90;17.60;;;;;;6177343;28;20239;-59
2022/03/08 11:37:12;;;;;;;4.37;3.73;;;19.40;18.10;;;;;;6178317;28;20234;-59
2022/03/08 11:40:17;;;;;;;3.90;3.53;;;20.10;19.20;;;;;;6177718;28;20238;-59
2022/03/08 11:43:20;;;;;;;4.20;3.90;;;25.90;17.30;;;;;;6176496;28;20237;-60
2022/03/08 11:46:23;;;;;;;4.00;3.70;;;30.70;14.40;;;;;;6178276;28;20575;-60
2022/03/08 11:49:47;;;;;;;4.80;4.40;;;33.40;11.80;;;;;;6178325;28;20234;-60
2022/03/08 11:53:06;;;;;;;4.25;3.85;;;36.00;11.40;;;;;;6172200;28;20235;-61
2022/03/08 11:56:17;;;;;;;5.10;4.68;;;36.20;9.70;;;;;;6170197;28;20218;-60
2022/03/08 11:59:26;;;;;;;4.70;4.30;;;34.10;10.40;;;;;;6179632;28;20242;-60
2022/03/08 12:02:30;;;;;;;4.32;4.03;;;35.30;9.80;;;;;;6179621;28;20257;-61
2022/03/08 12:05:55;;;;;;;4.05;3.65;;;37.30;9.60;;;;;;6179657;28;20695;-61
2022/03/08 12:09:07;;;;;;;4.95;4.20;;;38.30;8.80;;;;;;6178610;28;20237;-61
2022/03/08 12:12:10;;;;;;;4.43;3.97;;;34.90;9.00;;;;;;6171913;28;20237;-59
2022/03/08 12:15:15;;;;;;;4.75;4.35;;;33.00;9.80;;;;;;6176346;28;20230;-60
2022/03/08 12:18:19;;;;;;;3.13;2.92;;;33.60;10.20;;;;;;6176551;28;20237;-60
2022/03/08 12:21:33;;;;;;;4.45;4.10;;;35.60;9.40;;;;;;6161168;28;20235;-59
2022/03/08 12:24:40;;;;;;;4.65;4.25;;;36.70;9.10;;;;;;6153136;28;20266;-60
2022/03/08 12:27:50;;;;;;;4.43;3.83;;;38.00;8.70;;;;;;6153415;28;20333;-60
2022/03/08 12:31:07;;;;;;;4.00;3.70;;;38.40;8.10;;;;;;6154161;29;20249;-60
2022/03/08 12:34:39;;;;;;;3.55;3.33;;;35.90;8.60;;;;;;6153201;29;20230;-61
2022/03/08 12:38:03;;;;;;;4.65;3.78;;;33.30;9.10;;;;;;6152914;28;20276;-60
2022/03/08 12:41:08;;;;;;;4.00;3.67;;;29.30;10.90;;;;;;6153241;28;20226;-60
2022/03/08 12:44:11;;;;;;;4.20;3.80;;;27.30;12.00;;;;;;6152543;28;20226;-60
2022/03/08 12:47:14;;;;;;;4.07;3.73;;;25.80;12.40;;;;;;6157280;28;20234;-60
2022/03/08 12:50:20;;;;;;;3.70;3.20;;;24.10;13.30;;;;;;6174160;28;20274;-59
2022/03/08 12:53:27;;;;;;;7.53;4.43;;;22.90;13.90;;;;;;6168949;28;20239;-60
2022/03/08 12:56:31;;;;;;;4.60;4.17;;;22.60;14.90;;;;;;6171631;28;20237;-60
2022/03/08 12:59:42;;;;;;;4.37;3.57;;;26.80;14.10;;;;;;6179215;28;20237;-62
2022/03/08 13:02:45;;;;;;;4.33;3.93;;;31.00;11.70;;;;;;6179442;28;20256;-61
2022/03/08 13:05:51;;;;;;;4.43;4.03;;;34.10;10.40;;;;;;6180608;28;20225;-62
2022/03/08 13:09:05;;;;;;;3.85;3.55;;;35.50;9.70;;;;;;6180333;28;20237;-61
2022/03/08 13:12:17;;;;;;;3.97;3.67;;;37.50;8.90;;;;;;6180580;28;20245;-61
2022/03/08 13:15:23;;;;;;;3.65;3.35;;;37.60;8.40;;;;;;6180438;28;20240;-60
2022/03/08 13:18:28;;;;;;;5.53;4.07;;;34.80;8.60;;;;;;6170990;28;20238;-61
2022/03/08 13:21:31;;;;;;;4.35;3.95;;;33.80;9.30;;;;;;6180778;28;20548;-61
2022/03/08 13:24:36;;;;;;;3.70;3.40;;;31.10;9.80;;;;;;6180228;28;20249;-60
2022/03/08 13:27:53;;;;;;;4.03;3.73;;;28.00;11.20;;;;;;6177495;28;20226;-61
2022/03/08 13:30:58;;;;;;;5.23;3.90;;;24.90;12.40;;;;;;6156188;29;20701;-60
2022/03/08 13:34:02;;;;;;;5.23;4.53;;;24.40;13.50;;;;;;6156319;29;20227;-59
2022/03/08 13:37:06;;;;;;;4.90;3.80;;;26.50;13.00;;;;;;6158664;28;20226;-60
2022/03/08 13:40:24;;;;;;;4.33;3.77;;;29.00;11.70;;;;;;6168330;28;20282;-59
2022/03/08 13:43:30;;;;;;;4.23;3.83;;;30.60;10.90;;;;;;6168413;28;20238;-59
2022/03/08 13:46:48;;;;;;;5.73;3.60;;;31.00;10.80;;;;;;6170833;28;20395;-61
2022/03/08 13:49:52;;;;;;;4.30;3.90;;;30.90;10.80;;;;;;6165915;28;20235;-61
2022/03/08 13:52:56;;;;;;;4.73;4.27;;;28.50;11.40;;;;;;6158430;28;20226;-64
2022/03/08 13:56:01;;;;;;;5.90;3.93;;;26.30;12.40;;;;;;6168425;28;20230;-64
2022/03/08 13:59:04;;;;;;;4.20;3.23;;;24.60;13.10;;;;;;6179384;28;20543;-66
2022/03/08 14:02:13;;;;;;;2.90;2.70;;;22.90;13.70;;;;;;6179851;28;20217;-64
2022/03/08 14:05:17;;;;;;;5.70;3.67;;;21.30;14.60;;;;;;6179829;28;20238;-64
2022/03/08 14:08:25;;;;;;;8.50;3.40;;;19.90;15.40;;;;;;6180661;28;20261;-66
2022/03/08 14:11:31;;;;;;;4.20;3.80;;;18.60;16.00;;;;;;6177152;28;20246;-60
2022/03/08 14:14:34;;;;;;;3.40;3.10;;;17.30;17.10;;;;;;6166003;28;20232;-61
2022/03/08 14:17:39;;;;;;;3.30;3.00;;;16.50;17.90;;;;;;6179729;28;20466;-61
2022/03/08 14:20:42;;;;;;;5.80;3.43;;;15.60;18.20;;;;;;6170622;28;20482;-60
2022/03/08 14:23:45;;;;;;;4.30;3.40;;;14.90;18.70;;;;;;6179008;28;20488;-61
2022/03/08 14:27:11;;;;;;;5.73;3.73;;;14.50;19.30;;;;;;6178757;28;20474;-61
2022/03/08 14:30:22;;;;;;;3.77;3.47;;;13.60;19.90;;;;;;6151145;29;20546;-61
2022/03/08 14:33:25;;;;;;;3.73;2.83;;;13.20;20.50;;;;;;6154912;29;20470;-59
2022/03/08 14:36:34;;;;;;;4.17;3.40;;;12.90;21.20;;;;;;6154927;29;20477;-61
2022/03/08 14:39:44;;;;;;;4.30;3.90;;;12.70;21.50;;;;;;6154668;29;20489;-60
2022/03/08 14:42:49;;;;;;;4.63;4.20;;;12.30;21.40;;;;;;6154169;29;20548;-60
2022/03/08 14:45:52;;;;;;;4.20;3.80;;;12.20;21.80;;;;;;6154247;29;20475;-60
2022/03/08 14:49:14;;;;;;;7.73;3.27;;;12.10;21.90;;;;;;6153802;28;20482;-60
2022/03/08 14:52:19;;;;;;;3.50;3.03;;;11.90;22.00;;;;;;6154260;28;20990;-61
2022/03/08 14:55:24;;;;;;;4.43;3.00;;;11.60;22.00;;;;;;6161465;28;20481;-61
2022/03/08 14:58:29;;;;;;;4.53;3.60;;;11.50;22.50;;;;;;6169257;28;20484;-61
2022/03/08 15:01:32;;;;;;;4.83;4.20;;;11.60;22.60;;;;;;6173327;28;20472;-61
2022/03/08 15:04:36;;;;;;;4.33;3.43;;;11.30;22.70;;;;;;6178348;28;20544;-64
2022/03/08 15:07:39;;;;;;;3.83;3.53;;;10.90;23.00;;;;;;6170288;28;20483;-64
2022/03/08 15:10:43;;;;;;;3.97;3.67;;;10.90;23.20;;;;;;6168082;28;20968;-61
2022/03/08 15:13:47;;;;;;;3.90;3.50;;;10.80;23.20;;;;;;6177728;28;20477;-61
2022/03/08 15:16:51;;;;;;;3.10;2.80;;;10.50;23.40;;;;;;6177018;28;20493;-62
2022/03/08 15:19:54;;;;;;;7.20;3.77;;;10.50;23.50;;;;;;6177607;28;20534;-62
2022/03/08 15:22:57;;;;;;;5.10;3.87;;;10.50;23.70;;;;;;6177453;28;20508;-60
2022/03/08 15:26:00;;;;;;;4.77;3.83;;;10.50;23.80;;;;;;6174643;28;20518;-64
2022/03/08 15:29:06;;;;;;;4.03;3.30;;;10.60;24.00;;;;;;6160475;28;20480;-61
2022/03/08 15:32:09;;;;;;;4.63;4.23;;;10.60;24.10;;;;;;6153486;29;20429;-61
2022/03/08 15:35:12;;;;;;;4.70;4.20;;;10.70;24.00;;;;;;6153206;29;20814;-60
2022/03/08 15:38:15;;;;;;;4.37;3.40;;;10.50;24.10;;;;;;6153021;29;20459;-61
2022/03/08 15:41:20;;;;;;;4.63;3.90;;;10.60;24.10;;;;;;6153248;29;20724;-60
2022/03/08 15:44:25;;;;;;;4.40;4.00;;;10.50;24.20;;;;;;6153213;29;20934;-58
2022/03/08 15:47:31;;;;;;;3.90;3.30;;;10.40;24.10;;;;;;6154282;28;20485;-59
2022/03/08 15:50:34;;;;;;;4.30;3.80;;;10.60;24.40;;;;;;6153352;28;20500;-59
2022/03/08 15:53:37;;;;;;;3.77;3.37;;;10.60;24.10;;;;;;6153915;28;20776;-59
2022/03/08 15:56:42;;;;;;;5.30;2.93;;;10.70;23.80;;;;;;6171225;28;20985;-59
2022/03/08 15:59:48;;;;;;;3.43;2.27;;;10.70;23.40;;;;;;6177060;28;20484;-60
2022/03/08 16:02:55;;;;;;;4.03;3.63;;;10.70;23.40;;;;;;6177048;28;20489;-60
2022/03/08 16:05:58;;;;;;;3.00;2.50;;;10.60;23.50;;;;;;6177174;28;20491;-58